createdAt,value
2019-01-18T00:00:15.026Z,9.93
2019-01-18T00:05:12.058Z,10.43
2019-01-18T00:10:09.501Z,8.77
2019-01-18T00:15:09.323Z,8.60
2019-01-18T00:20:14.449Z,13.73
2019-01-18T00:25:11.472Z,10.43
2019-01-18T00:30:15.454Z,9.33
2019-01-18T00:35:12.365Z,10.33
2019-01-18T00:40:18.854Z,12.43
2019-01-18T00:45:18.297Z,9.87
2019-01-18T00:50:18.041Z,9.33
2019-01-18T00:55:15.064Z,9.73
2019-01-18T01:00:20.208Z,12.00
2019-01-18T01:05:17.528Z,11.73
2019-01-18T01:10:14.503Z,9.57
2019-01-18T01:15:15.213Z,9.60
2019-01-18T01:20:15.480Z,9.30
2019-01-18T01:25:12.693Z,10.00
2019-01-18T01:30:16.846Z,10.70
2019-01-18T01:35:14.303Z,11.03
2019-01-18T01:45:37.200Z,9.43
2019-01-18T01:50:34.117Z,9.97
2019-01-18T01:55:31.059Z,10.20
2019-01-18T02:00:28.277Z,9.50
2019-01-18T02:05:25.425Z,12.00
2019-01-18T02:10:22.425Z,10.73
2019-01-18T02:15:22.687Z,11.37
2019-01-18T02:20:22.077Z,11.00
2019-01-18T02:25:19.424Z,9.40
2019-01-18T02:30:28.284Z,8.67
2019-01-18T02:35:25.197Z,8.93
2019-01-18T02:40:22.131Z,11.37
2019-01-18T02:45:22.745Z,9.77
2019-01-18T02:50:20.546Z,9.37
2019-01-18T02:55:17.600Z,11.37
2019-01-18T03:00:21.108Z,10.23
2019-01-18T03:05:22.414Z,10.00
2019-01-18T03:10:22.893Z,10.83
2019-01-18T03:15:19.839Z,9.30
2019-01-18T03:20:18.187Z,11.57
2019-01-18T03:25:19.004Z,10.83
2019-01-18T03:30:20.414Z,9.60
2019-01-18T03:35:19.813Z,12.90
2019-01-18T03:40:18.868Z,13.97
2019-01-18T03:45:17.871Z,11.20
2019-01-18T03:50:21.465Z,13.13
2019-01-18T03:55:18.871Z,13.00
2019-01-18T04:00:26.216Z,14.50
2019-01-18T04:05:23.802Z,12.77
2019-01-18T04:10:21.964Z,13.77
2019-01-18T04:15:23.960Z,11.43
2019-01-18T04:20:21.967Z,10.20
2019-01-18T04:25:23.270Z,14.30
2019-01-18T04:30:22.114Z,11.60
2019-01-18T04:35:19.056Z,11.00
2019-01-18T04:40:24.451Z,14.43
2019-01-18T04:45:21.679Z,12.10
2019-01-18T04:50:27.175Z,14.73
2019-01-18T04:55:24.141Z,11.47
2019-01-18T05:00:30.461Z,12.00
2019-01-18T05:05:27.487Z,12.47
2019-01-18T05:10:26.818Z,11.10
2019-01-18T05:15:28.052Z,14.20
2019-01-18T05:20:24.992Z,12.43
2019-01-18T05:25:21.913Z,10.67
2019-01-18T05:30:27.542Z,11.13
2019-01-18T05:35:24.469Z,11.33
2019-01-18T05:40:22.310Z,9.17
2019-01-18T05:45:21.218Z,10.90
2019-01-18T05:50:24.488Z,9.77
2019-01-18T05:55:21.525Z,8.77
2019-01-18T06:00:32.350Z,9.03
2019-01-18T06:05:30.562Z,9.17
2019-01-18T06:10:27.751Z,8.67
2019-01-18T06:15:24.678Z,7.60
2019-01-18T06:20:21.688Z,7.33
2019-01-18T06:25:18.616Z,8.57
2019-01-18T06:30:20.300Z,7.73
2019-01-18T06:35:17.506Z,8.13
2019-01-18T06:40:21.899Z,8.33
2019-01-18T06:45:23.981Z,11.87
2019-01-18T06:50:20.895Z,8.70
2019-01-18T06:55:17.954Z,10.30
2019-01-18T07:00:28.301Z,9.83
2019-01-18T07:05:25.196Z,9.03
2019-01-18T07:10:24.062Z,12.10
2019-01-18T07:15:20.983Z,13.53
2019-01-18T07:20:19.638Z,14.37
2019-01-18T07:25:23.304Z,12.27
2019-01-18T07:30:35.596Z,12.57
2019-01-18T07:35:32.527Z,13.03
2019-01-18T07:40:29.477Z,12.17
2019-01-18T07:45:29.601Z,15.83
2019-01-18T07:50:26.535Z,16.43
2019-01-18T07:55:23.433Z,20.00
2019-01-18T08:00:24.305Z,17.13
2019-01-18T08:05:23.418Z,13.83
2019-01-18T08:10:22.700Z,11.90
2019-01-18T08:15:25.909Z,12.23
2019-01-18T08:20:25.249Z,14.30
2019-01-18T08:25:22.187Z,12.03
2019-01-18T08:30:25.914Z,14.27
2019-01-18T08:35:24.523Z,15.10
2019-01-18T08:40:35.763Z,14.03
2019-01-18T08:45:37.550Z,14.80
2019-01-18T08:50:34.692Z,11.63
2019-01-18T08:55:31.614Z,11.40
2019-01-18T09:00:31.462Z,10.23
2019-01-18T09:05:28.709Z,10.07
2019-01-18T09:10:34.206Z,10.50
2019-01-18T09:15:31.137Z,9.53
2019-01-18T09:20:30.117Z,8.67
2019-01-18T09:25:27.317Z,9.50
2019-01-18T09:30:32.123Z,8.63
2019-01-18T09:35:29.643Z,7.77
2019-01-18T09:40:29.497Z,8.47
2019-01-18T09:45:26.401Z,7.10
2019-01-18T09:50:26.862Z,6.70
2019-01-18T09:55:23.838Z,7.77
2019-01-18T10:00:34.285Z,8.07
2019-01-18T10:05:31.196Z,6.90
2019-01-18T10:10:28.141Z,7.70
2019-01-18T10:15:30.496Z,10.03
2019-01-18T10:20:31.080Z,9.00
2019-01-18T10:25:28.032Z,9.90
2019-01-18T10:30:27.388Z,9.67
2019-01-18T10:35:25.950Z,10.73
2019-01-18T10:40:22.852Z,8.90
2019-01-18T10:45:20.006Z,9.73
2019-01-18T10:50:28.747Z,9.60
2019-01-18T10:55:25.678Z,7.90
2019-01-18T11:00:29.341Z,7.87
2019-01-18T11:05:26.726Z,7.50
2019-01-18T11:10:23.788Z,8.20
2019-01-18T11:15:28.925Z,8.13
2019-01-18T11:20:36.029Z,9.07
2019-01-18T11:25:32.999Z,7.47
2019-01-18T11:30:29.965Z,8.00
2019-01-18T11:35:26.880Z,7.20
2019-01-18T11:40:23.802Z,5.93
2019-01-18T11:45:20.760Z,6.33
2019-01-18T11:50:21.722Z,6.63
2019-01-18T11:55:18.627Z,6.80
2019-01-18T12:00:19.385Z,6.53
2019-01-18T12:05:16.573Z,7.03
2019-01-18T12:10:17.273Z,8.40
2019-01-18T12:15:14.486Z,8.10
2019-01-18T12:20:24.438Z,8.63
2019-01-18T12:25:21.349Z,7.73
2019-01-18T12:30:27.832Z,7.67
2019-01-18T12:35:24.855Z,8.67
2019-01-18T12:40:21.819Z,7.57
2019-01-18T12:45:20.721Z,8.67
2019-01-18T12:50:25.148Z,8.70
2019-01-18T12:55:22.071Z,9.07
2019-01-18T13:00:22.416Z,9.43
2019-01-18T13:05:26.392Z,7.70
2019-01-18T13:10:24.232Z,8.63
2019-01-18T13:15:26.727Z,8.40
2019-01-18T13:20:23.638Z,8.20
2019-01-18T13:25:20.587Z,7.43
2019-01-18T13:30:18.404Z,8.70
2019-01-18T13:35:15.957Z,9.57
2019-01-18T13:40:18.137Z,8.73
2019-01-18T13:45:15.466Z,8.87
2019-01-18T13:50:15.866Z,8.97
2019-01-18T13:55:20.501Z,9.93
2019-01-18T14:00:18.088Z,8.83
2019-01-18T14:05:15.290Z,10.37
2019-01-18T14:10:26.840Z,9.63
2019-01-18T14:15:25.498Z,9.47
2019-01-18T14:20:27.200Z,9.80
2019-01-18T14:25:24.316Z,9.90
2019-01-18T14:30:26.000Z,11.00
2019-01-18T14:35:23.313Z,11.10
2019-01-18T14:40:20.655Z,10.30
2019-01-18T14:45:27.826Z,11.40
2019-01-18T14:50:24.947Z,12.60
2019-01-18T14:55:22.120Z,14.23
2019-01-18T15:00:30.533Z,14.10
2019-01-18T15:05:27.469Z,11.20
2019-01-18T15:10:24.842Z,10.27
2019-01-18T15:15:22.734Z,12.60
2019-01-18T15:20:30.279Z,11.27
2019-01-18T15:25:27.396Z,11.87
2019-01-18T15:30:27.651Z,12.37
2019-01-18T15:35:31.458Z,10.40
2019-01-18T15:40:33.269Z,11.93
2019-01-18T15:45:30.205Z,11.53
2019-01-18T15:50:31.310Z,11.57
2019-01-18T15:55:28.337Z,11.60
2019-01-18T16:00:35.519Z,12.33
2019-01-18T16:05:32.425Z,13.70
2019-01-18T16:10:29.473Z,28.70
2019-01-18T16:15:40.829Z,35.47
2019-01-18T16:20:38.973Z,30.83
2019-01-18T16:25:35.917Z,15.87
2019-01-18T16:30:32.983Z,14.13
2019-01-18T16:35:29.908Z,13.77
2019-01-18T16:40:30.544Z,14.07
2019-01-18T16:45:27.565Z,14.40
2019-01-18T16:50:24.587Z,14.80
2019-01-18T16:55:21.730Z,16.90
2019-01-18T17:00:35.109Z,14.70
2019-01-18T17:05:32.017Z,16.90
2019-01-18T17:10:45.936Z,17.87
2019-01-18T17:15:43.014Z,18.33
2019-01-18T17:20:46.341Z,15.57
2019-01-18T17:25:43.574Z,16.27
2019-01-18T17:30:40.708Z,17.50
2019-01-18T17:35:51.670Z,18.37
2019-01-18T17:41:12.041Z,19.47
2019-01-18T17:46:23.923Z,15.70
2019-01-18T17:51:56.915Z,21.17
2019-01-18T17:57:17.887Z,17.57
2019-01-18T18:02:58.201Z,16.90
2019-01-18T18:08:18.576Z,18.50
2019-01-18T18:13:48.095Z,16.83
2019-01-18T18:19:28.246Z,15.10
2019-01-18T18:24:44.859Z,12.90
2019-01-18T18:29:50.365Z,11.93
2019-01-18T18:35:17.301Z,12.30
2019-01-18T18:40:37.839Z,10.67
2019-01-18T18:45:45.972Z,10.33
2019-01-18T18:50:56.904Z,10.97
2019-01-18T18:56:23.569Z,10.80
2019-01-18T19:01:53.445Z,10.60
2019-01-18T19:07:44.541Z,10.30
2019-01-18T19:13:08.884Z,12.57
2019-01-18T19:18:50.551Z,11.03
2019-01-18T19:24:28.254Z,11.70
2019-01-18T19:29:33.557Z,11.17
2019-01-18T19:34:54.318Z,10.77
2019-01-18T19:40:05.536Z,11.40
2019-01-18T19:45:36.353Z,10.70
2019-01-18T19:51:09.290Z,10.37
2019-01-18T19:56:29.446Z,10.53
2019-01-18T20:01:54.824Z,10.97
2019-01-18T20:07:09.201Z,13.33
2019-01-18T20:12:17.752Z,16.50
2019-01-18T20:17:38.368Z,17.80
2019-01-18T20:22:57.844Z,10.27
2019-01-18T20:28:22.977Z,10.47
2019-01-18T20:33:48.574Z,11.03
2019-01-18T20:39:18.833Z,11.43
2019-01-18T20:44:49.891Z,10.47
2019-01-18T20:50:01.194Z,13.07
2019-01-18T20:55:15.697Z,11.97
2019-01-18T21:00:47.068Z,10.73
2019-01-18T21:05:52.181Z,12.53
2019-01-18T21:11:03.157Z,10.87
2019-01-18T21:16:25.192Z,11.07
2019-01-18T21:21:57.148Z,11.43
2019-01-18T21:27:22.411Z,11.10
2019-01-18T21:32:40.026Z,12.60
2019-01-18T21:38:24.191Z,12.70
2019-01-18T21:43:45.736Z,11.83
2019-01-18T21:49:00.456Z,11.33
2019-01-18T21:54:21.114Z,11.80
2019-01-18T21:59:48.029Z,11.17
2019-01-18T22:05:10.038Z,12.67
2019-01-18T22:10:35.193Z,11.37
2019-01-18T22:15:46.246Z,11.93
2019-01-18T22:21:03.811Z,11.63
2019-01-18T22:26:28.313Z,12.40
2019-01-18T22:31:54.861Z,11.87
2019-01-18T22:37:15.133Z,12.77
2019-01-18T22:42:48.789Z,12.10
2019-01-18T22:48:09.374Z,12.30
2019-01-18T22:53:46.615Z,12.30
2019-01-18T22:59:33.565Z,11.77
2019-01-18T23:04:44.759Z,12.80
2019-01-18T23:09:52.970Z,11.83
2019-01-18T23:15:10.086Z,13.50
2019-01-18T23:20:18.287Z,14.47
2019-01-18T23:25:38.267Z,12.13
2019-01-18T23:30:46.356Z,11.60
2019-01-18T23:36:19.423Z,13.03
2019-01-18T23:41:43.054Z,12.10
2019-01-18T23:46:57.881Z,11.37
2019-01-18T23:52:45.869Z,13.07
2019-01-18T23:58:06.230Z,14.27
